Time;durP1;ratioP1;P1;durP2;ratioP2;P2;SDS_P1;SDS_P2;PMS_P1;PMS_P2;Temp;Humidity;BMP_temperature;BMP_pressure;BME280_temperature;BME280_humidity;BME280_pressure;Samples;Min_cycle;Max_cycle;Signal;HPM_P1;HPM_P2
2021/08/24 00:01:54;;;;;;;28.88;14.73;;;10.60;99.90;;;;;;5053088;28;20183;-90
2021/08/24 00:04:21;;;;;;;46.03;15.65;;;10.60;99.90;;;;;;5052637;28;20045;-90
2021/08/24 00:06:48;;;;;;;46.58;14.88;;;10.50;99.90;;;;;;5051968;28;20049;-90
2021/08/24 00:09:15;;;;;;;23.00;14.15;;;10.40;99.90;;;;;;5052283;28;20106;-90
2021/08/24 00:11:42;;;;;;;42.08;14.02;;;10.30;99.90;;;;;;5052349;28;20469;-91
2021/08/24 00:14:09;;;;;;;27.58;15.35;;;10.30;99.90;;;;;;5051952;28;20067;-90
2021/08/24 00:16:36;;;;;;;42.92;15.50;;;10.30;99.90;;;;;;5051873;28;20056;-90
2021/08/24 00:19:02;;;;;;;34.55;15.45;;;10.20;99.90;;;;;;5052365;28;20070;-89
2021/08/24 00:21:29;;;;;;;23.27;13.98;;;10.20;99.90;;;;;;5051834;28;20051;-90
2021/08/24 00:23:56;;;;;;;18.30;12.05;;;10.20;99.90;;;;;;5052141;28;20056;-91
2021/08/24 00:26:22;;;;;;;23.27;12.98;;;10.20;99.90;;;;;;5051457;28;20045;-90
2021/08/24 00:28:49;;;;;;;25.30;12.98;;;10.20;99.90;;;;;;5051876;28;20061;-90
2021/08/24 00:31:16;;;;;;;27.25;12.82;;;10.20;99.90;;;;;;5052482;28;20049;-90
2021/08/24 00:33:43;;;;;;;21.75;12.07;;;10.10;99.90;;;;;;5048475;28;20418;-90
2021/08/24 00:36:14;;;;;;;13.60;10.15;;;10.00;99.90;;;;;;5067288;28;20050;-90
2021/08/24 00:38:41;;;;;;;17.80;11.40;;;10.10;99.90;;;;;;5091161;28;20084;-90
2021/08/24 00:41:08;;;;;;;60.03;14.38;;;10.10;99.90;;;;;;5061136;28;20091;-89
2021/08/24 00:43:38;;;;;;;26.88;14.43;;;10.20;99.90;;;;;;5051784;28;20049;-90
2021/08/24 00:46:35;;;;;;;22.75;14.15;;;10.30;99.90;;;;;;5052094;28;20064;-90
2021/08/24 00:49:17;;;;;;;32.67;13.85;;;10.40;99.90;;;;;;5052114;28;20139;-89
2021/08/24 00:51:51;;;;;;;30.27;14.50;;;10.50;99.90;;;;;;5051926;28;20049;-89
2021/08/24 00:54:20;;;;;;;32.55;14.48;;;10.60;99.90;;;;;;5051873;28;20045;-90
2021/08/24 00:56:51;;;;;;;32.60;15.63;;;10.60;99.90;;;;;;5051787;28;20134;-89
2021/08/24 00:59:18;;;;;;;24.60;12.95;;;10.70;99.90;;;;;;5052144;28;20090;-89
2021/08/24 01:01:49;;;;;;;24.50;12.98;;;10.70;99.90;;;;;;5051735;28;20049;-90
2021/08/24 01:04:19;;;;;;;26.17;13.13;;;10.70;99.90;;;;;;5051929;28;20063;-89
2021/08/24 01:07:12;;;;;;;17.02;10.90;;;10.80;99.90;;;;;;5051264;28;20049;-89
2021/08/24 01:10:05;;;;;;;16.48;11.27;;;10.80;99.90;;;;;;5085372;28;20076;-90
2021/08/24 01:12:53;;;;;;;17.05;11.07;;;10.80;99.90;;;;;;5040190;28;20056;-88
2021/08/24 01:15:37;;;;;;;15.95;9.90;;;10.80;99.90;;;;;;5062047;28;20053;-89
2021/08/24 01:18:14;;;;;;;19.13;12.18;;;10.80;99.90;;;;;;5052501;28;20053;-89
2021/08/24 01:21:09;;;;;;;16.10;10.77;;;10.80;99.90;;;;;;5051541;28;20059;-89
2021/08/24 01:23:55;;;;;;;15.18;10.65;;;10.90;99.90;;;;;;5055201;28;20051;-89
2021/08/24 01:26:28;;;;;;;15.80;10.75;;;10.90;99.90;;;;;;5055083;28;20057;-89
2021/08/24 01:29:33;;;;;;;11.90;9.07;;;10.90;99.90;;;;;;5054785;28;20555;-90
2021/08/24 01:32:09;;;;;;;;;;;11.00;99.90;;;;;;5055575;28;20132;-89
2021/08/24 01:34:46;;;;;;;14.57;8.68;;;11.00;99.90;;;;;;5054814;28;19929;-89
2021/08/24 01:37:35;;;;;;;12.15;8.88;;;11.00;99.90;;;;;;5055053;28;20404;-89
2021/08/24 01:40:16;;;;;;;10.75;9.02;;;11.00;99.90;;;;;;5054859;28;20053;-88
2021/08/24 01:42:44;;;;;;;14.95;9.93;;;11.00;99.90;;;;;;5054775;28;20049;-88
2021/08/24 01:45:16;;;;;;;9.77;8.20;;;11.10;99.90;;;;;;5054722;28;20085;-89
2021/08/24 01:48:00;;;;;;;10.27;8.18;;;11.10;99.90;;;;;;5054413;28;20049;-89
2021/08/24 01:50:37;;;;;;;9.15;8.20;;;11.10;99.90;;;;;;5054808;28;20067;-89
2021/08/24 01:53:12;;;;;;;10.77;8.20;;;11.10;99.90;;;;;;5054427;28;20049;-89
2021/08/24 01:55:44;;;;;;;10.30;9.23;;;11.20;99.90;;;;;;5054655;28;20482;-88
2021/08/24 01:58:28;;;;;;;10.27;8.63;;;11.20;99.90;;;;;;5054419;28;20051;-89
2021/08/24 02:00:56;;;;;;;10.52;8.43;;;11.20;99.90;;;;;;5054659;28;20166;-89
2021/08/24 02:03:31;;;;;;;8.55;7.72;;;11.20;99.90;;;;;;5054066;28;20052;-89
2021/08/24 02:06:11;;;;;;;8.23;7.43;;;11.20;99.90;;;;;;5054064;28;20498;-89
2021/08/24 02:08:43;;;;;;;11.00;8.00;;;11.30;99.90;;;;;;5054500;28;20136;-88
2021/08/24 02:11:11;;;;;;;9.52;8.48;;;11.30;99.90;;;;;;5054513;28;20045;-89
2021/08/24 02:13:45;;;;;;;8.98;7.75;;;11.30;99.90;;;;;;5054090;28;20140;-88
2021/08/24 02:16:20;;;;;;;9.60;7.63;;;11.20;99.90;;;;;;5054063;28;20048;-89
2021/08/24 02:19:12;;;;;;;9.57;7.40;;;11.30;99.90;;;;;;5054107;28;20052;-89
2021/08/24 02:21:47;;;;;;;9.63;7.82;;;11.30;99.90;;;;;;5043948;28;20386;-89
2021/08/24 02:24:21;;;;;;;9.05;7.72;;;11.30;99.90;;;;;;5054008;28;20045;-89
2021/08/24 02:26:50;;;;;;;11.52;7.43;;;11.30;99.90;;;;;;5053635;28;20048;-89
2021/08/24 02:29:17;;;;;;;13.75;9.57;;;11.40;99.90;;;;;;5053654;28;20187;-89
2021/08/24 02:31:54;;;;;;;7.82;7.10;;;11.40;99.90;;;;;;5058351;28;20063;-89
2021/08/24 02:34:32;;;;;;;9.50;8.18;;;11.40;99.90;;;;;;5059139;28;20053;-88
2021/08/24 02:37:14;;;;;;;8.68;7.28;;;11.50;99.90;;;;;;5053774;28;20068;-89
2021/08/24 02:39:54;;;;;;;8.45;7.35;;;11.40;99.90;;;;;;5034078;28;20049;-88
2021/08/24 02:42:56;;;;;;;8.32;7.00;;;11.50;99.90;;;;;;5035359;28;20051;-89
2021/08/24 02:45:27;;;;;;;7.60;6.70;;;11.60;99.90;;;;;;5053623;28;20051;-89
2021/08/24 02:47:56;;;;;;;7.78;6.97;;;11.60;99.90;;;;;;5053414;28;20048;-90
2021/08/24 02:50:24;;;;;;;7.80;6.80;;;11.60;99.90;;;;;;5053588;28;20055;-90
2021/08/24 02:52:51;;;;;;;10.77;6.78;;;11.60;99.90;;;;;;5053528;28;20413;-90
2021/08/24 02:55:18;;;;;;;7.00;6.38;;;11.60;99.90;;;;;;5053448;28;20053;-91
2021/08/24 02:57:45;;;;;;;12.68;7.93;;;11.70;99.90;;;;;;5053224;28;20045;-90
2021/08/24 03:00:12;;;;;;;7.78;7.05;;;11.70;99.90;;;;;;5053477;28;20137;-91
2021/08/24 03:02:38;;;;;;;7.90;6.82;;;11.70;99.90;;;;;;5053218;28;20148;-92
2021/08/24 03:05:06;;;;;;;8.95;6.35;;;11.70;99.90;;;;;;5053281;28;20086;-91
2021/08/24 03:07:35;;;;;;;9.80;6.70;;;11.70;99.90;;;;;;5053332;28;20148;-91
2021/08/24 03:10:09;;;;;;;8.38;6.65;;;11.80;99.90;;;;;;5053557;28;20075;-92
2021/08/24 03:12:57;;;;;;;8.15;6.45;;;11.80;99.90;;;;;;5053650;28;20083;-92
2021/08/24 03:15:28;;;;;;;8.18;6.60;;;11.80;99.90;;;;;;5053104;28;20494;-92
2021/08/24 03:18:03;;;;;;;10.23;7.47;;;11.80;99.90;;;;;;5054034;28;20048;-93
2021/08/24 03:20:35;;;;;;;8.77;7.88;;;11.80;99.90;;;;;;5054069;28;20099;-93
2021/08/24 03:23:04;;;;;;;9.38;7.75;;;11.80;99.90;;;;;;5054056;28;20136;-93
2021/08/24 03:25:31;;;;;;;9.90;7.53;;;11.80;99.90;;;;;;5053628;28;20053;-92
2021/08/24 03:27:58;;;;;;;18.10;8.90;;;11.80;99.90;;;;;;5053213;28;20144;-92
2021/08/24 03:30:25;;;;;;;10.98;7.90;;;11.70;99.90;;;;;;5053868;28;20049;-92
2021/08/24 03:32:52;;;;;;;12.05;7.10;;;11.70;99.90;;;;;;5054959;28;20429;-94
2021/08/24 03:35:22;;;;;;;14.35;8.23;;;11.70;99.90;;;;;;5053721;28;20053;-94
2021/08/24 03:37:48;;;;;;;14.30;10.00;;;11.70;99.90;;;;;;5053570;28;20059;-93
2021/08/24 03:40:16;;;;;;;18.10;9.90;;;11.60;99.90;;;;;;5053498;28;20049;-93
2021/08/24 03:42:43;;;;;;;16.55;9.45;;;11.60;99.90;;;;;;5053143;28;20124;-93
2021/08/24 03:45:10;;;;;;;13.95;7.78;;;11.50;99.90;;;;;;5053191;28;20506;-93
2021/08/24 03:47:37;;;;;;;13.23;8.52;;;11.60;99.90;;;;;;5053546;28;20140;-93
2021/08/24 03:50:06;;;;;;;12.38;7.15;;;11.60;99.90;;;;;;5055239;28;20167;-91
2021/08/24 03:52:33;;;;;;;10.15;7.30;;;11.60;99.90;;;;;;5078128;28;20033;-92
2021/08/24 03:55:00;;;;;;;14.98;8.18;;;11.60;99.90;;;;;;5064517;28;20051;-93
2021/08/24 03:57:26;;;;;;;17.70;9.02;;;11.60;99.90;;;;;;5053293;28;20053;-93
2021/08/24 03:59:55;;;;;;;11.82;7.50;;;11.50;99.90;;;;;;5053270;28;20057;-93
2021/08/24 04:02:23;;;;;;;13.02;8.38;;;11.60;99.90;;;;;;5053880;28;20093;-93
2021/08/24 04:04:50;;;;;;;12.63;8.00;;;11.70;99.90;;;;;;5053355;28;20517;-93
2021/08/24 04:07:17;;;;;;;9.82;7.18;;;11.70;99.90;;;;;;5053381;28;20053;-93
2021/08/24 04:09:44;;;;;;;19.27;8.93;;;11.70;99.90;;;;;;5053057;28;20131;-93
2021/08/24 04:12:11;;;;;;;10.40;7.00;;;11.70;99.90;;;;;;5052940;28;20430;-92
2021/08/24 04:14:37;;;;;;;12.13;7.35;;;11.70;99.90;;;;;;5053025;28;20053;-92
2021/08/24 04:17:04;;;;;;;13.40;7.22;;;11.70;99.90;;;;;;5053175;28;20136;-92
2021/08/24 04:19:31;;;;;;;13.48;7.75;;;11.70;99.90;;;;;;5053131;28;20053;-93
2021/08/24 04:21:58;;;;;;;15.32;7.63;;;11.70;99.90;;;;;;5052914;28;20405;-92
2021/08/24 04:24:24;;;;;;;10.70;8.13;;;11.70;99.90;;;;;;5053087;28;20049;-92
2021/08/24 04:26:51;;;;;;;9.95;8.32;;;11.70;99.90;;;;;;5052943;28;20048;-92
2021/08/24 04:29:18;;;;;;;10.88;7.90;;;11.70;99.90;;;;;;5052572;28;20140;-92
2021/08/24 04:31:45;;;;;;;13.45;7.45;;;11.80;99.90;;;;;;5053156;28;20053;-90
2021/08/24 04:34:12;;;;;;;18.70;10.32;;;11.80;99.90;;;;;;5053014;28;20041;-92
2021/08/24 04:36:38;;;;;;;15.88;9.68;;;11.90;99.90;;;;;;5060061;28;20080;-92
2021/08/24 04:39:05;;;;;;;12.50;9.00;;;11.80;99.90;;;;;;5059555;28;20137;-93
2021/08/24 04:41:32;;;;;;;11.23;8.60;;;11.70;99.90;;;;;;5053569;28;20072;-92
2021/08/24 04:43:59;;;;;;;14.90;9.35;;;11.70;99.90;;;;;;5052818;28;20140;-92
2021/08/24 04:46:26;;;;;;;20.08;10.75;;;11.80;99.90;;;;;;5052753;28;20413;-92
2021/08/24 04:48:53;;;;;;;25.00;11.60;;;11.70;99.90;;;;;;5052829;28;20049;-91
2021/08/24 04:51:20;;;;;;;13.82;10.38;;;11.60;99.90;;;;;;5052534;28;20136;-92
2021/08/24 04:53:46;;;;;;;20.55;10.75;;;11.70;99.90;;;;;;5052368;28;20049;-91
2021/08/24 04:56:13;;;;;;;13.63;10.05;;;11.70;99.90;;;;;;5052795;28;20566;-91
2021/08/24 04:58:40;;;;;;;18.67;10.85;;;11.70;99.90;;;;;;5056332;28;20515;-91
2021/08/24 05:01:07;;;;;;;18.13;12.52;;;11.80;99.90;;;;;;5056409;28;20132;-92
2021/08/24 05:03:34;;;;;;;18.50;12.30;;;11.80;99.90;;;;;;5056313;28;20074;-91
2021/08/24 05:06:00;;;;;;;19.40;12.00;;;11.80;99.90;;;;;;5056334;28;20060;-92
2021/08/24 05:08:27;;;;;;;15.40;11.05;;;11.90;99.90;;;;;;5059590;28;20045;-92
2021/08/24 05:10:54;;;;;;;24.73;12.40;;;11.90;99.90;;;;;;5078606;28;20072;-93
2021/08/24 05:13:21;;;;;;;19.60;11.70;;;11.80;99.90;;;;;;5067387;28;20072;-92
2021/08/24 05:15:48;;;;;;;16.35;11.13;;;11.80;99.90;;;;;;5055880;28;20049;-91
2021/08/24 05:18:15;;;;;;;16.50;11.35;;;11.80;99.90;;;;;;5056024;28;20049;-91
2021/08/24 05:20:42;;;;;;;12.05;10.40;;;11.80;99.90;;;;;;5055720;28;20052;-92
2021/08/24 05:23:09;;;;;;;16.08;10.93;;;11.80;99.90;;;;;;5055924;28;20045;-91
2021/08/24 05:25:37;;;;;;;15.80;11.02;;;11.80;99.90;;;;;;5055592;28;20057;-92
2021/08/24 05:28:05;;;;;;;16.65;11.68;;;11.90;99.90;;;;;;5055363;28;20059;-91
2021/08/24 05:30:32;;;;;;;16.40;11.07;;;12.00;99.90;;;;;;5055553;28;20053;-91
2021/08/24 05:33:00;;;;;;;16.17;12.95;;;12.00;99.90;;;;;;5055615;28;20131;-91
2021/08/24 05:35:27;;;;;;;13.88;11.35;;;12.10;99.90;;;;;;5055365;28;20091;-90
2021/08/24 05:37:53;;;;;;;18.70;12.52;;;12.20;99.90;;;;;;5055380;28;20210;-91
2021/08/24 05:40:21;;;;;;;19.20;12.05;;;12.20;99.90;;;;;;5055425;28;20075;-91
2021/08/24 05:42:48;;;;;;;14.00;11.32;;;12.30;99.90;;;;;;5055101;28;20092;-91
2021/08/24 05:45:15;;;;;;;23.17;14.93;;;12.30;99.90;;;;;;5055329;28;20051;-91
2021/08/24 05:47:41;;;;;;;20.15;14.45;;;12.40;99.90;;;;;;5055409;28;20053;-90
2021/08/24 05:50:11;;;;;;;20.65;14.50;;;12.40;99.90;;;;;;5055344;28;20055;-92
2021/08/24 05:52:38;;;;;;;16.40;12.38;;;12.20;99.90;;;;;;5054848;28;20581;-90
2021/08/24 05:55:06;;;;;;;19.55;13.43;;;12.20;99.90;;;;;;5054663;28;20049;-90
2021/08/24 05:57:32;;;;;;;23.85;13.15;;;12.30;99.90;;;;;;5056015;28;20045;-90
2021/08/24 05:59:59;;;;;;;14.85;11.02;;;12.30;99.90;;;;;;5055668;28;20052;-89
2021/08/24 06:02:29;;;;;;;17.80;11.82;;;12.20;99.90;;;;;;5055168;28;20095;-90
2021/08/24 06:04:56;;;;;;;18.33;12.88;;;12.20;99.90;;;;;;5055239;28;20045;-89
2021/08/24 06:07:23;;;;;;;15.25;11.80;;;12.20;99.90;;;;;;5054995;28;20055;-89
2021/08/24 06:09:50;;;;;;;14.80;11.73;;;12.20;99.90;;;;;;5055692;28;20082;-90
2021/08/24 06:12:19;;;;;;;17.70;13.38;;;12.20;99.90;;;;;;5054871;28;20464;-89
2021/08/24 06:14:46;;;;;;;19.02;13.80;;;12.20;99.90;;;;;;5054605;28;20504;-88
2021/08/24 06:17:12;;;;;;;18.95;13.48;;;12.30;99.90;;;;;;5055042;28;20072;-90
2021/08/24 06:19:39;;;;;;;18.67;12.45;;;12.20;99.90;;;;;;5054352;28;20478;-90
2021/08/24 06:22:06;;;;;;;17.25;12.43;;;12.20;99.90;;;;;;5054639;28;20053;-90
2021/08/24 06:24:35;;;;;;;17.88;12.32;;;12.20;99.90;;;;;;5054669;28;20485;-89
2021/08/24 06:27:04;;;;;;;13.02;11.27;;;12.30;99.90;;;;;;5058040;28;20053;-89
2021/08/24 06:29:31;;;;;;;17.05;13.20;;;12.40;99.90;;;;;;5077517;28;20064;-89
2021/08/24 06:32:00;;;;;;;16.40;12.63;;;12.40;99.90;;;;;;5077398;28;20049;-87
2021/08/24 06:34:28;;;;;;;12.45;11.15;;;12.50;99.90;;;;;;5056968;28;20052;-88
2021/08/24 06:36:54;;;;;;;20.77;12.57;;;12.50;99.90;;;;;;5057413;28;20070;-88
2021/08/24 06:39:21;;;;;;;16.13;11.70;;;12.60;99.90;;;;;;5057171;28;20044;-87
2021/08/24 06:41:48;;;;;;;17.40;11.32;;;12.70;99.90;;;;;;5057339;28;20116;-87
2021/08/24 06:44:15;;;;;;;15.43;12.07;;;12.70;99.90;;;;;;5074995;28;20051;-88
2021/08/24 06:46:42;;;;;;;13.20;11.32;;;12.70;99.90;;;;;;5056934;28;20052;-88
2021/08/24 06:49:09;;;;;;;14.95;11.35;;;12.90;99.90;;;;;;5057312;28;20040;-87
2021/08/24 06:51:36;;;;;;;12.50;11.20;;;12.80;99.90;;;;;;5057044;28;20087;-88
2021/08/24 06:54:03;;;;;;;15.15;11.20;;;12.80;99.90;;;;;;5057312;28;20059;-87
2021/08/24 06:56:33;;;;;;;19.70;13.55;;;12.90;99.90;;;;;;5056969;28;20507;-87
2021/08/24 06:59:02;;;;;;;15.68;11.73;;;13.00;99.90;;;;;;5057230;28;20044;-87
2021/08/24 07:01:30;;;;;;;15.30;11.95;;;13.10;99.90;;;;;;5057570;28;20049;-88
2021/08/24 07:03:57;;;;;;;15.95;11.23;;;13.10;99.90;;;;;;5056790;28;20048;-86
2021/08/24 07:06:24;;;;;;;20.42;13.27;;;13.20;99.90;;;;;;5056939;28;20079;-88
2021/08/24 07:08:54;;;;;;;18.83;12.27;;;13.20;99.90;;;;;;5056699;28;20564;-86
2021/08/24 07:11:21;;;;;;;17.23;13.13;;;13.20;99.90;;;;;;5056784;28;20434;-87
2021/08/24 07:13:50;;;;;;;15.40;11.80;;;13.20;99.90;;;;;;5056699;28;20091;-90
2021/08/24 07:16:17;;;;;;;18.73;13.02;;;13.30;99.90;;;;;;5056717;28;20057;-87
2021/08/24 07:18:44;;;;;;;14.45;10.57;;;13.40;99.90;;;;;;5073789;28;20048;-86
2021/08/24 07:21:15;;;;;;;16.10;12.35;;;13.50;99.90;;;;;;5056165;28;20339;-87
2021/08/24 07:23:43;;;;;;;13.70;11.50;;;13.50;99.90;;;;;;5056589;28;20143;-86
2021/08/24 07:26:11;;;;;;;15.73;11.95;;;13.60;99.90;;;;;;5056610;28;20051;-87
2021/08/24 07:28:39;;;;;;;15.82;11.32;;;13.60;99.90;;;;;;5055733;28;20052;-87
2021/08/24 07:31:06;;;;;;;12.23;10.93;;;13.60;99.90;;;;;;5073850;28;20048;-87
2021/08/24 07:33:33;;;;;;;12.02;10.82;;;13.60;99.90;;;;;;5056559;28;20516;-87
2021/08/24 07:36:00;;;;;;;12.18;10.35;;;13.60;99.90;;;;;;5056120;28;20048;-87
2021/08/24 07:38:27;;;;;;;16.27;12.40;;;13.50;99.90;;;;;;5056253;28;20045;-87
2021/08/24 07:40:54;;;;;;;18.33;13.70;;;13.50;99.90;;;;;;5073441;28;20057;-86
2021/08/24 07:43:21;;;;;;;15.80;13.02;;;13.30;99.90;;;;;;5056223;28;20078;-86
2021/08/24 07:45:48;;;;;;;18.35;14.10;;;13.40;99.90;;;;;;5057528;28;20052;-89
2021/08/24 07:48:16;;;;;;;16.08;14.02;;;13.40;99.90;;;;;;5091887;28;20120;-86
2021/08/24 07:50:43;;;;;;;15.63;13.18;;;13.50;99.90;;;;;;5057153;28;20080;-86
2021/08/24 07:53:10;;;;;;;17.25;13.45;;;13.70;99.90;;;;;;5056250;28;20412;-87
2021/08/24 07:55:37;;;;;;;22.98;13.48;;;13.70;99.90;;;;;;5055819;28;20485;-86
2021/08/24 07:58:04;;;;;;;14.77;11.60;;;13.90;99.90;;;;;;5055897;28;20066;-86
2021/08/24 08:00:31;;;;;;;14.60;12.50;;;13.90;99.90;;;;;;5055614;28;20494;-85
2021/08/24 08:02:58;;;;;;;14.30;12.07;;;13.90;99.90;;;;;;5073156;28;20053;-86
2021/08/24 08:05:25;;;;;;;17.02;13.45;;;13.90;99.90;;;;;;5055805;28;20067;-87
2021/08/24 08:07:53;;;;;;;14.75;12.77;;;13.80;99.90;;;;;;5073387;28;20091;-86
2021/08/24 08:10:19;;;;;;;17.60;13.93;;;13.70;99.90;;;;;;5055983;28;20509;-86
2021/08/24 08:12:46;;;;;;;16.45;13.90;;;13.60;99.90;;;;;;5055848;28;20163;-85
2021/08/24 08:15:15;;;;;;;16.65;14.00;;;13.60;99.90;;;;;;5055554;28;20123;-86
2021/08/24 08:17:42;;;;;;;16.17;14.25;;;13.60;99.90;;;;;;5055783;28;20405;-86
2021/08/24 08:20:10;;;;;;;19.77;13.80;;;13.70;99.90;;;;;;5055786;28;20481;-85
2021/08/24 08:22:39;;;;;;;13.65;11.77;;;14.10;99.90;;;;;;5055481;28;20052;-86
2021/08/24 08:25:07;;;;;;;14.50;12.05;;;14.30;99.90;;;;;;5055676;28;20055;-87
2021/08/24 08:27:33;;;;;;;12.55;11.02;;;14.50;99.90;;;;;;5055161;28;20052;-86
2021/08/24 08:30:00;;;;;;;12.52;11.25;;;14.90;99.90;;;;;;5073050;28;20481;-86
2021/08/24 08:32:30;;;;;;;10.98;9.38;;;14.90;99.90;;;;;;5057718;28;20459;-86
2021/08/24 08:34:57;;;;;;;14.55;10.20;;;14.90;99.90;;;;;;5077160;28;20059;-86
2021/08/24 08:37:24;;;;;;;14.05;11.05;;;15.10;99.90;;;;;;5059847;28;20044;-87
2021/08/24 08:39:51;;;;;;;13.38;10.23;;;15.20;99.90;;;;;;5059679;28;20104;-86
2021/08/24 08:42:47;;;;;;;16.20;9.80;;;15.60;99.90;;;;;;5060110;28;20390;-86
2021/08/24 08:45:20;;;;;;;11.32;8.35;;;16.40;99.90;;;;;;5059554;28;20052;-86
2021/08/24 08:48:22;;;;;;;8.05;7.15;;;17.40;99.90;;;;;;5059454;28;20076;-86
2021/08/24 08:50:53;;;;;;;8.43;7.57;;;18.10;99.90;;;;;;5027662;28;20045;-87
2021/08/24 08:53:38;;;;;;;12.98;7.70;;;17.90;99.90;;;;;;5077408;28;20041;-86
2021/08/24 08:56:15;;;;;;;8.30;7.43;;;17.70;99.90;;;;;;5077121;28;20078;-86
2021/08/24 08:59:12;;;;;;;10.73;7.90;;;17.40;99.90;;;;;;5059102;28;20048;-86
2021/08/24 09:01:59;;;;;;;7.70;6.97;;;17.20;99.90;;;;;;5076661;28;20045;-86
2021/08/24 09:04:30;;;;;;;8.00;7.20;;;16.90;99.90;;;;;;5076591;28;20053;-86
2021/08/24 09:07:00;;;;;;;9.05;7.88;;;16.40;99.90;;;;;;5076962;28;20092;-86
2021/08/24 09:09:28;;;;;;;8.15;6.97;;;16.40;99.90;;;;;;5059028;28;20128;-86
2021/08/24 09:11:55;;;;;;;8.88;6.68;;;16.70;99.90;;;;;;5058613;28;20049;-86
2021/08/24 09:14:26;;;;;;;7.28;6.57;;;16.50;99.90;;;;;;5058778;28;20049;-87
2021/08/24 09:17:17;;;;;;;7.28;5.57;;;16.70;99.90;;;;;;5058586;28;20056;-87
2021/08/24 09:20:01;;;;;;;5.22;4.70;;;17.90;99.90;;;;;;5047823;28;20055;-86
2021/08/24 09:22:27;;;;;;;;;;;18.40;99.90;;;;;;5076852;28;20127;-88
2021/08/24 09:24:55;;;;;;;8.57;5.07;;;18.30;99.90;;;;;;5076097;28;19924;-87
2021/08/24 09:27:43;;;;;;;4.50;4.10;;;18.30;99.90;;;;;;5058503;28;20053;-85
2021/08/24 09:30:11;;;;;;;5.28;3.47;;;21.00;99.90;;;;;;5058590;28;20051;-85
2021/08/24 09:32:38;;;;;;;4.10;3.30;;;21.20;99.90;;;;;;5058330;28;20503;-86
2021/08/24 09:35:26;;;;;;;4.90;3.35;;;21.10;99.90;;;;;;5058096;28;20045;-86
2021/08/24 09:37:53;;;;;;;6.53;3.28;;;20.20;99.90;;;;;;5058294;28;20059;-86
2021/08/24 09:40:43;;;;;;;4.85;3.67;;;19.60;99.90;;;;;;5058235;28;20055;-87
2021/08/24 09:43:35;;;;;;;4.07;3.45;;;19.50;99.90;;;;;;5058085;28;20058;-87
2021/08/24 09:46:21;;;;;;;4.05;3.53;;;20.90;99.90;;;;;;5058176;28;20472;-87
2021/08/24 09:48:57;;;;;;;4.55;3.72;;;21.00;99.90;;;;;;5058243;28;20048;-88
2021/08/24 09:51:43;;;;;;;3.50;3.20;;;20.70;99.90;;;;;;5058321;28;20114;-86
2021/08/24 09:54:37;;;;;;;4.50;3.80;;;20.30;99.90;;;;;;5075788;28;20523;-86
2021/08/24 09:57:10;;;;;;;5.80;3.65;;;19.90;99.90;;;;;;5057716;28;20075;-86
2021/08/24 09:59:45;;;;;;;4.33;3.93;;;18.80;99.90;;;;;;5075506;28;20374;-86
2021/08/24 10:02:35;;;;;;;3.72;3.42;;;18.80;99.90;;;;;;5059908;28;20055;-86
2021/08/24 10:05:03;;;;;;;4.72;3.60;;;18.80;99.90;;;;;;5075189;28;20482;-86
2021/08/24 10:07:43;;;;;;;3.80;3.50;;;18.70;99.90;;;;;;5075262;28;20139;-86
2021/08/24 10:10:32;;;;;;;4.30;3.83;;;18.70;99.90;;;;;;5057693;28;20086;-86
2021/08/24 10:13:20;;;;;;;7.78;4.00;;;18.90;99.90;;;;;;5075184;28;20048;-86
2021/08/24 10:15:48;;;;;;;4.30;3.13;;;19.20;99.90;;;;;;5057399;28;20049;-86
2021/08/24 10:18:24;;;;;;;5.60;2.95;;;21.20;99.90;;;;;;5075382;28;20124;-87
2021/08/24 10:20:57;;;;;;;3.83;3.53;;;21.40;99.90;;;;;;5075254;28;20048;-87
2021/08/24 10:23:32;;;;;;;4.95;3.50;;;21.00;99.90;;;;;;5059133;28;20054;-86
2021/08/24 10:26:05;;;;;;;3.70;3.33;;;21.00;99.90;;;;;;5075960;28;20095;-88
2021/08/24 10:28:48;;;;;;;3.22;2.92;;;21.20;99.90;;;;;;5057731;28;20084;-88
2021/08/24 10:31:30;;;;;;;3.10;2.90;;;21.10;99.90;;;;;;5057913;28;20050;-87
2021/08/24 10:34:04;;;;;;;3.45;2.63;;;22.10;99.90;;;;;;5075061;28;20049;-87
2021/08/24 10:36:36;;;;;;;4.72;2.95;;;23.70;99.90;;;;;;5057643;28;20432;-88
2021/08/24 10:39:16;;;;;;;4.45;3.25;;;23.70;99.90;;;;;;5075314;28;20101;-88
2021/08/24 10:41:49;;;;;;;3.78;3.10;;;23.10;99.90;;;;;;5057605;28;20051;-88
2021/08/24 10:44:26;;;;;;;4.30;3.50;;;22.50;99.90;;;;;;5057466;28;20063;-88
2021/08/24 10:47:05;;;;;;;3.60;3.33;;;21.90;99.90;;;;;;5075026;28;20290;-89
2021/08/24 10:49:33;;;;;;;4.32;3.60;;;21.60;99.90;;;;;;5057459;28;20106;-88
2021/08/24 10:52:12;;;;;;;4.68;3.90;;;21.20;99.90;;;;;;5074531;28;20493;-89
2021/08/24 10:54:44;;;;;;;4.28;3.13;;;21.10;99.90;;;;;;5056463;28;20051;-89
2021/08/24 10:57:44;;;;;;;3.90;3.60;;;20.70;99.90;;;;;;5057351;28;20052;-89
2021/08/24 11:00:42;;;;;;;3.63;3.22;;;20.20;99.90;;;;;;5057536;28;20052;-91
2021/08/24 11:03:47;;;;;;;3.83;3.00;;;21.00;99.90;;;;;;5057436;28;20109;-88
2021/08/24 11:06:28;;;;;;;6.07;3.58;;;21.50;99.90;;;;;;5074672;28;20580;-89
2021/08/24 11:09:18;;;;;;;3.08;2.63;;;21.20;99.90;;;;;;5056990;28;20041;-90
2021/08/24 11:12:19;;;;;;;3.10;2.90;;;20.70;99.90;;;;;;5057486;28;20048;-90
2021/08/24 11:15:24;;;;;;;8.38;3.40;;;20.30;99.90;;;;;;5058033;28;20090;-91
2021/08/24 11:18:11;;;;;;;3.30;2.97;;;20.10;99.90;;;;;;5057318;28;20059;-89
2021/08/24 11:21:03;;;;;;;2.83;2.60;;;20.30;99.90;;;;;;5074621;28;20136;-89
2021/08/24 11:23:58;;;;;;;5.25;3.13;;;20.80;99.90;;;;;;5074455;28;20051;-90
2021/08/24 11:26:45;;;;;;;3.40;3.10;;;20.90;99.90;;;;;;5074405;28;20055;-92
2021/08/24 11:29:34;;;;;;;4.90;3.42;;;20.90;99.90;;;;;;5056993;28;20057;-90
2021/08/24 11:32:21;;;;;;;5.18;3.10;;;20.50;99.90;;;;;;5056935;28;20051;-90
2021/08/24 11:35:02;;;;;;;3.20;2.90;;;20.70;99.90;;;;;;5074224;28;20054;-92
2021/08/24 11:37:42;;;;;;;4.18;3.08;;;21.00;99.90;;;;;;5057037;28;20084;-88
2021/08/24 11:40:16;;;;;;;3.85;3.03;;;21.20;99.90;;;;;;5057792;28;20040;-89
2021/08/24 11:42:46;;;;;;;4.32;3.20;;;20.80;99.90;;;;;;5069401;28;20096;-90
2021/08/24 11:45:25;;;;;;;4.10;3.30;;;20.60;99.90;;;;;;5093226;28;20048;-91
2021/08/24 11:48:06;;;;;;;4.30;3.60;;;20.00;99.90;;;;;;5076112;28;20084;-92
2021/08/24 11:50:45;;;;;;;3.97;2.92;;;20.10;99.90;;;;;;5056469;28;20062;-93
2021/08/24 11:53:28;;;;;;;3.58;3.28;;;20.50;99.90;;;;;;5056570;28;20080;-88
2021/08/24 11:55:59;;;;;;;5.95;3.25;;;20.70;99.90;;;;;;5056462;28;20136;-89
2021/08/24 11:58:35;;;;;;;3.65;3.30;;;20.50;99.90;;;;;;5056444;28;20584;-89
2021/08/24 12:01:04;;;;;;;4.25;3.15;;;20.40;99.90;;;;;;5056500;28;20131;-90
2021/08/24 12:03:37;;;;;;;4.18;3.40;;;20.40;99.90;;;;;;5056484;28;20045;-91
2021/08/24 12:06:06;;;;;;;5.00;2.92;;;20.50;99.90;;;;;;5056299;28;20052;-90
2021/08/24 12:08:41;;;;;;;4.05;3.38;;;20.50;99.90;;;;;;5056180;28;20056;-89
2021/08/24 12:11:14;;;;;;;4.65;2.63;;;20.40;99.90;;;;;;5073747;28;20116;-89
2021/08/24 12:13:46;;;;;;;5.97;3.05;;;20.40;99.90;;;;;;5057602;28;20432;-88
2021/08/24 12:16:28;;;;;;;3.00;2.70;;;20.00;99.90;;;;;;5073638;28;20054;-88
2021/08/24 12:19:19;;;;;;;4.75;3.08;;;19.80;99.90;;;;;;5056026;28;20072;-88
2021/08/24 12:21:53;;;;;;;3.28;2.97;;;19.60;99.90;;;;;;5056296;28;20054;-88
2021/08/24 12:24:22;;;;;;;5.07;4.07;;;19.50;99.90;;;;;;5055893;28;20110;-88
2021/08/24 12:26:55;;;;;;;7.85;6.05;;;19.40;99.90;;;;;;5055960;28;20049;-88
2021/08/24 12:29:35;;;;;;;5.18;4.20;;;19.70;99.90;;;;;;5055937;28;20136;-89
2021/08/24 12:32:19;;;;;;;4.18;3.70;;;20.00;99.90;;;;;;5056001;28;20543;-89
2021/08/24 12:35:04;;;;;;;72.82;42.38;;;20.10;99.90;;;;;;5054196;28;20131;-88
2021/08/24 12:37:31;;;;;;;8.13;5.63;;;19.80;99.90;;;;;;5055922;28;20071;-88
2021/08/24 12:40:24;;;;;;;91.32;49.25;;;20.00;99.90;;;;;;5055483;28;20044;-91
2021/08/24 12:43:15;;;;;;;11.60;9.30;;;19.60;99.90;;;;;;5072906;28;20048;-89
2021/08/24 12:45:43;;;;;;;12.90;8.23;;;19.30;99.90;;;;;;5055225;28;20058;-89
2021/08/24 12:48:15;;;;;;;13.60;7.97;;;19.30;99.90;;;;;;5055512;28;20040;-88
2021/08/24 12:51:07;;;;;;;27.17;14.97;;;19.50;99.90;;;;;;5055323;28;20052;-89
2021/08/24 12:53:47;;;;;;;68.15;31.08;;;19.80;99.90;;;;;;5055311;28;20135;-91
2021/08/24 12:56:37;;;;;;;91.68;48.08;;;20.10;99.90;;;;;;5055479;28;20131;-91
2021/08/24 12:59:04;;;;;;;144.93;69.07;;;20.00;99.90;;;;;;5055035;28;20048;-90
2021/08/24 13:01:31;;;;;;;36.35;16.35;;;19.80;99.90;;;;;;5061549;28;20039;-87
2021/08/24 13:04:12;;;;;;;88.60;36.72;;;19.80;99.90;;;;;;5072906;28;20052;-89
2021/08/24 13:06:41;;;;;;;66.78;26.17;;;19.50;99.90;;;;;;5056723;28;20385;-87